C2 — ZCYD3 — position and weather

sailwx.info

Track history (hours):
 
Tides and Currents Weather Stations Pressure Air Temp Water Temp Dewpoint Dewpoint Depression Visibility Wind Speed Wind Dir Waves Ship Positions

C2

Last reported at 2016-Jul-01 23:33 UTC. Time now 2016-Jul-02 03:58 UTC.
Position N 39°47' E 013°55'.

Length 79 m; draft 3.4 m.

Type: Pleasure craft. MMSI: 319268000.

Date/timePositionNaut miles runAvg speedWind from/ knotsBaromVisibWave heightAir tempDewpointWater temp
2016-Jul-01 23:33N 39°47' E 013°55'1514.7
2016-Jul-01 22:33N 39°57' E 013°40'1514.6
2016-Jul-01 21:33N 40°06' E 013°26'8914.8
2016-Jul-01 15:33N 41°04' E 011°57'1515.5
2016-Jul-01 14:33N 41°14' E 011°41'1915.5
2016-Jul-01 13:21N 41°27' E 011°23'1215.5
2016-Jul-01 12:33N 41°35' E 011°11'5315.1
2016-Jul-01 09:03N 42°10' E 010°17'714.7
2016-Jul-01 08:33N 42°14' E 010°09'1414.6
2016-Jul-01 07:33N 42°24' E 009°54'12313.6
2016-Jun-30 22:33N 43°30' E 007°33'1414.4
2016-Jun-30 21:33N 43°34' E 007°14'5 4.3
2016-Jun-30 20:31N 43°35' E 007°08'0 0.0
2016-Jun-30 19:31N 43°35' E 007°08'0 0.0
2016-Jun-30 18:31N 43°35' E 007°08'0 0.0
2016-Jun-30 17:31N 43°35' E 007°08'0 0.0
2016-Jun-30 16:31N 43°35' E 007°08'0 0.0
2016-Jun-30 15:31N 43°35' E 007°08'6 6.2
2016-Jun-30 14:34N 43°38' E 007°15'4 3.3
2016-Jun-30 13:28N 43°42' E 007°17'0 0.0
2016-Jun-30 12:22N 43°42' E 007°17'0 0.0
2016-Jun-30 11:17N 43°42' E 007°17'0 0.0
2016-Jun-30 10:29N 43°42' E 007°17'0 0.0
2016-Jun-30 09:28N 43°42' E 007°17'0 0.0
2016-Jun-30 08:16N 43°42' E 007°17'0 0.0
2016-Jun-30 07:29N 43°42' E 007°17'0 0.0
2016-Jun-30 06:23N 43°42' E 007°17'1 0.5
2016-Jun-30 04:33N 43°41' E 007°17'9 8.6
2016-Jun-30 03:33N 43°35' E 007°08'0 0.0
2016-Jun-30 02:27N 43°35' E 007°08'0 0.0
2016-Jun-30 01:33N 43°35' E 007°08'0 0.0
2016-Jun-30 00:33N 43°35' E 007°08'0 0.0
2016-Jun-29 23:33N 43°35' E 007°08'0 0.0
2016-Jun-29 22:33N 43°35' E 007°08'0 0.0
2016-Jun-29 21:33N 43°35' E 007°08'0 0.0
2016-Jun-29 20:33N 43°35' E 007°08'0 0.0
2016-Jun-29 19:33N 43°35' E 007°08'0 0.0
2016-Jun-29 18:30N 43°35' E 007°08'0 0.0
2016-Jun-29 17:33N 43°35' E 007°08'4 3.6
2016-Jun-29 16:33N 43°31' E 007°09'34 3.1
2016-Jun-29 05:31N 43°08' E 006°35'4 0.6
2016-Jun-28 22:26N 43°11' E 006°39'0 0.0
2016-Jun-28 21:29N 43°11' E 006°39'0 0.0
2016-Jun-28 19:23N 43°11' E 006°39'0 0.0
2016-Jun-28 18:29N 43°11' E 006°39'0 0.0
2016-Jun-28 17:32N 43°11' E 006°39'0 0.0
2016-Jun-28 15:10N 43°11' E 006°39'3 4.9
2016-Jun-28 14:29N 43°14' E 006°40'1 0.5
2016-Jun-28 11:33N 43°14' E 006°42'16 1.3
2016-Jun-27 23:04N 43°25' E 006°59'815.7
2016-Jun-27 22:33N 43°30' E 007°08'20 3.3
2016-Jun-27 16:26N 43°45' E 007°26'1 0.7
2016-Jun-27 14:33N 43°43' E 007°26'3 0.5
2016-Jun-27 07:20N 43°41' E 007°22'1114.3
2016-Jun-27 06:33N 43°33' E 007°11'6 5.3
2016-Jun-27 05:28N 43°32' E 007°03'0 0.1
2016-Jun-27 04:28N 43°32' E 007°03'0 0.0
2016-Jun-27 03:28N 43°32' E 007°03'0 0.0
2016-Jun-27 02:28N 43°32' E 007°03'0 0.0
2016-Jun-27 01:31N 43°32' E 007°03'0 0.0
2016-Jun-27 00:16N 43°32' E 007°03'0 0.0
2016-Jun-26 23:28N 43°32' E 007°03'0 0.0
2016-Jun-26 22:31N 43°32' E 007°03'0 0.0
2016-Jun-26 21:31N 43°32' E 007°03'0 0.0
2016-Jun-26 20:31N 43°32' E 007°03'0 0.0
2016-Jun-26 19:31N 43°32' E 007°03'0 0.0
2016-Jun-26 18:22N 43°32' E 007°03'0 0.0
2016-Jun-26 17:25N 43°32' E 007°03'0 0.0
2016-Jun-26 16:25N 43°32' E 007°03'0 0.0
2016-Jun-26 15:25N 43°32' E 007°03'3 3.4
2016-Jun-26 14:33N 43°33' E 007°07'0 0.1
2016-Jun-26 13:31N 43°33' E 007°07'0 0.0
2016-Jun-26 12:31N 43°33' E 007°07'3 3.0
2016-Jun-26 11:33N 43°33' E 007°11'6 5.7
2016-Jun-26 10:30N 43°39' E 007°11'0 0.0
2016-Jun-26 09:24N 43°39' E 007°11'0 0.0
2016-Jun-26 08:24N 43°39' E 007°11'0 0.0
2016-Jun-26 07:30N 43°39' E 007°11'0 0.0
2016-Jun-26 06:30N 43°39' E 007°11'0 0.0
2016-Jun-26 05:30N 43°39' E 007°11'1 1.4
2016-Jun-26 04:33N 43°38' E 007°10'6 4.7
2016-Jun-26 03:22N 43°33' E 007°07'0 0.0
2016-Jun-26 02:31N 43°33' E 007°07'0 0.0
2016-Jun-26 01:28N 43°33' E 007°07'0 0.0
2016-Jun-26 00:04N 43°33' E 007°07'0 0.0
2016-Jun-25 23:28N 43°33' E 007°07'0 0.0
2016-Jun-25 22:28N 43°33' E 007°07'0 0.0
2016-Jun-25 21:28N 43°33' E 007°07'0 0.0
2016-Jun-25 20:28N 43°33' E 007°07'0 0.0
2016-Jun-25 19:28N 43°33' E 007°07'0 0.0
2016-Jun-25 18:31N 43°33' E 007°07'0 0.0
2016-Jun-25 17:31N 43°33' E 007°07'0 0.0
2016-Jun-25 16:31N 43°33' E 007°07'0 0.0
2016-Jun-25 15:31N 43°33' E 007°07'0 0.0
2016-Jun-25 14:22N 43°33' E 007°07'0 0.0
2016-Jun-25 13:22N 43°33' E 007°07'0 0.0
2016-Jun-25 12:31N 43°33' E 007°07'0 0.0
2016-Jun-25 11:28N 43°33' E 007°07'0 0.0
2016-Jun-25 10:28N 43°33' E 007°07'0 0.0
2016-Jun-25 09:28N 43°33' E 007°07'0 0.0
2016-Jun-25 08:22N 43°33' E 007°07'0 0.0
2016-Jun-25 07:28N 43°33' E 007°07'0 0.0
2016-Jun-25 06:28N 43°33' E 007°07'0 0.0
2016-Jun-25 05:28N 43°33' E 007°07'0 0.0
2016-Jun-25 04:22N 43°33' E 007°07'0 0.0
2016-Jun-25 03:28N 43°33' E 007°07'0 0.0
2016-Jun-25 02:28N 43°33' E 007°07'0 0.0
2016-Jun-25 01:28N 43°33' E 007°07'0 0.0
2016-Jun-25 00:16N 43°33' E 007°07'0 0.0
2016-Jun-24 23:28N 43°33' E 007°07'0 0.0
2016-Jun-24 22:22N 43°33' E 007°07'0 0.0
2016-Jun-24 21:28N 43°33' E 007°07'0 0.0
2016-Jun-24 20:28N 43°33' E 007°07'0 0.0
2016-Jun-24 19:28N 43°33' E 007°07'0 0.0
2016-Jun-24 18:28N 43°33' E 007°07'0 0.0
2016-Jun-24 17:22N 43°33' E 007°07'0 0.0
2016-Jun-24 16:28N 43°33' E 007°07'0 0.0
2016-Jun-24 15:28N 43°33' E 007°07'0 0.0
2016-Jun-24 14:28N 43°33' E 007°07'0 0.0
2016-Jun-24 13:10N 43°33' E 007°07'0 0.0
2016-Jun-24 12:22N 43°33' E 007°07'0 0.0
2016-Jun-24 11:28N 43°33' E 007°07'0 0.0
2016-Jun-24 10:28N 43°33' E 007°07'0 0.0
2016-Jun-24 09:28N 43°33' E 007°07'0 0.0
2016-Jun-24 08:28N 43°33' E 007°07'0 0.0
2016-Jun-24 07:28N 43°33' E 007°07'0 0.0
2016-Jun-24 04:28N 43°33' E 007°07'0 0.0
2016-Jun-24 03:28N 43°33' E 007°07'0 0.0
2016-Jun-24 02:22N 43°33' E 007°07'0 0.0
2016-Jun-24 01:28N 43°33' E 007°07'0 0.0
2016-Jun-24 00:28N 43°33' E 007°07'0 0.0
2016-Jun-23 23:28N 43°33' E 007°07'0 0.0
2016-Jun-23 22:28N 43°33' E 007°07'0 0.0
2016-Jun-23 21:22N 43°33' E 007°07'0 0.0
2016-Jun-23 20:28N 43°33' E 007°07'0 0.0
2016-Jun-23 19:28N 43°33' E 007°07'0 0.0
2016-Jun-23 18:28N 43°33' E 007°07'0 0.0
2016-Jun-23 17:28N 43°33' E 007°07'0 0.0
2016-Jun-23 16:28N 43°33' E 007°07'7 7.5
2016-Jun-23 15:33N 43°39' E 007°11'0 0.1
2016-Jun-23 14:22N 43°39' E 007°11'0 0.0
2016-Jun-23 13:28N 43°39' E 007°11'0 0.0
2016-Jun-23 12:22N 43°39' E 007°11'0 0.0
2016-Jun-23 11:28N 43°39' E 007°11'0 0.0
2016-Jun-23 10:30N 43°39' E 007°11'7 7.1
2016-Jun-23 09:31N 43°33' E 007°07'0 0.0
2016-Jun-23 08:31N 43°33' E 007°07'0 0.0
2016-Jun-23 07:31N 43°33' E 007°07'0 0.0
2016-Jun-23 05:31N 43°33' E 007°07'0 0.0
2016-Jun-23 04:31N 43°33' E 007°07'0 0.0
2016-Jun-23 03:31N 43°33' E 007°07'0 0.0
2016-Jun-23 02:31N 43°33' E 007°07'0 0.0
2016-Jun-23 01:31N 43°33' E 007°07'0 0.0
2016-Jun-23 00:31N 43°33' E 007°07'0 0.0
2016-Jun-22 23:31N 43°33' E 007°07'0 0.0
2016-Jun-22 22:25N 43°33' E 007°07'0 0.0
2016-Jun-22 21:31N 43°33' E 007°07'0 0.0
2016-Jun-22 20:31N 43°33' E 007°07'0 0.0
2016-Jun-22 19:31N 43°33' E 007°07'0 0.0
2016-Jun-22 18:19N 43°33' E 007°07'16 1.3
2016-Jun-22 05:32N 43°19' E 006°54'1515.8
2016-Jun-22 04:33N 43°27' E 007°13'1616.0
2016-Jun-22 03:33N 43°35' E 007°32'1715.9
2016-Jun-22 02:30N 43°43' E 007°52'1515.8
2016-Jun-22 01:34N 43°51' E 008°10'1615.7
2016-Jun-22 00:34N 43°59' E 008°28'1515.2
2016-Jun-21 23:34N 44°06' E 008°47'  
Track history (hours):
 
Tides and Currents Weather Stations Pressure Air Temp Water Temp Dewpoint Dewpoint Depression Visibility Wind Speed Wind Dir Waves Ship Positions

C2

Last reported at 2016-Jul-01 23:33 UTC. Time now 2016-Jul-02 03:58 UTC.
Position N 39°47' E 013°55'.

Length 79 m; draft 3.4 m.

Type: Pleasure craft. MMSI: 319268000.

Date/timePositionNaut miles runAvg speedWind from/ knotsBaromVisibWave heightAir tempDewpointWater temp
2016-Jul-01 23:33N 39°47' E 013°55'1514.7
2016-Jul-01 22:33N 39°57' E 013°40'1514.6
2016-Jul-01 21:33N 40°06' E 013°26'8914.8
2016-Jul-01 15:33N 41°04' E 011°57'1515.5
2016-Jul-01 14:33N 41°14' E 011°41'1915.5
2016-Jul-01 13:21N 41°27' E 011°23'1215.5
2016-Jul-01 12:33N 41°35' E 011°11'5315.1
2016-Jul-01 09:03N 42°10' E 010°17'714.7
2016-Jul-01 08:33N 42°14' E 010°09'1414.6
2016-Jul-01 07:33N 42°24' E 009°54'12313.6
2016-Jun-30 22:33N 43°30' E 007°33'1414.4
2016-Jun-30 21:33N 43°34' E 007°14'5 4.3
2016-Jun-30 20:31N 43°35' E 007°08'0 0.0
2016-Jun-30 19:31N 43°35' E 007°08'0 0.0
2016-Jun-30 18:31N 43°35' E 007°08'0 0.0
2016-Jun-30 17:31N 43°35' E 007°08'0 0.0
2016-Jun-30 16:31N 43°35' E 007°08'0 0.0
2016-Jun-30 15:31N 43°35' E 007°08'6 6.2
2016-Jun-30 14:34N 43°38' E 007°15'4 3.3
2016-Jun-30 13:28N 43°42' E 007°17'0 0.0
2016-Jun-30 12:22N 43°42' E 007°17'0 0.0
2016-Jun-30 11:17N 43°42' E 007°17'0 0.0
2016-Jun-30 10:29N 43°42' E 007°17'0 0.0
2016-Jun-30 09:28N 43°42' E 007°17'0 0.0
2016-Jun-30 08:16N 43°42' E 007°17'0 0.0
2016-Jun-30 07:29N 43°42' E 007°17'0 0.0
2016-Jun-30 06:23N 43°42' E 007°17'1 0.5
2016-Jun-30 04:33N 43°41' E 007°17'9 8.6
2016-Jun-30 03:33N 43°35' E 007°08'0 0.0
2016-Jun-30 02:27N 43°35' E 007°08'0 0.0
2016-Jun-30 01:33N 43°35' E 007°08'0 0.0
2016-Jun-30 00:33N 43°35' E 007°08'0 0.0
2016-Jun-29 23:33N 43°35' E 007°08'0 0.0
2016-Jun-29 22:33N 43°35' E 007°08'0 0.0
2016-Jun-29 21:33N 43°35' E 007°08'0 0.0
2016-Jun-29 20:33N 43°35' E 007°08'0 0.0
2016-Jun-29 19:33N 43°35' E 007°08'0 0.0
2016-Jun-29 18:30N 43°35' E 007°08'0 0.0
2016-Jun-29 17:33N 43°35' E 007°08'4 3.6
2016-Jun-29 16:33N 43°31' E 007°09'34 3.1
2016-Jun-29 05:31N 43°08' E 006°35'4 0.6
2016-Jun-28 22:26N 43°11' E 006°39'0 0.0
2016-Jun-28 21:29N 43°11' E 006°39'0 0.0
2016-Jun-28 19:23N 43°11' E 006°39'0 0.0
2016-Jun-28 18:29N 43°11' E 006°39'0 0.0
2016-Jun-28 17:32N 43°11' E 006°39'0 0.0
2016-Jun-28 15:10N 43°11' E 006°39'3 4.9
2016-Jun-28 14:29N 43°14' E 006°40'1 0.5
2016-Jun-28 11:33N 43°14' E 006°42'16 1.3
2016-Jun-27 23:04N 43°25' E 006°59'815.7
2016-Jun-27 22:33N 43°30' E 007°08'20 3.3
2016-Jun-27 16:26N 43°45' E 007°26'1 0.7
2016-Jun-27 14:33N 43°43' E 007°26'3 0.5
2016-Jun-27 07:20N 43°41' E 007°22'1114.3
2016-Jun-27 06:33N 43°33' E 007°11'6 5.3
2016-Jun-27 05:28N 43°32' E 007°03'0 0.1
2016-Jun-27 04:28N 43°32' E 007°03'0 0.0
2016-Jun-27 03:28N 43°32' E 007°03'0 0.0
2016-Jun-27 02:28N 43°32' E 007°03'0 0.0
2016-Jun-27 01:31N 43°32' E 007°03'0 0.0
2016-Jun-27 00:16N 43°32' E 007°03'0 0.0
2016-Jun-26 23:28N 43°32' E 007°03'0 0.0
2016-Jun-26 22:31N 43°32' E 007°03'0 0.0
2016-Jun-26 21:31N 43°32' E 007°03'0 0.0
2016-Jun-26 20:31N 43°32' E 007°03'0 0.0
2016-Jun-26 19:31N 43°32' E 007°03'0 0.0
2016-Jun-26 18:22N 43°32' E 007°03'0 0.0
2016-Jun-26 17:25N 43°32' E 007°03'0 0.0
2016-Jun-26 16:25N 43°32' E 007°03'0 0.0
2016-Jun-26 15:25N 43°32' E 007°03'3 3.4
2016-Jun-26 14:33N 43°33' E 007°07'0 0.1
2016-Jun-26 13:31N 43°33' E 007°07'0 0.0
2016-Jun-26 12:31N 43°33' E 007°07'3 3.0
2016-Jun-26 11:33N 43°33' E 007°11'6 5.7
2016-Jun-26 10:30N 43°39' E 007°11'0 0.0
2016-Jun-26 09:24N 43°39' E 007°11'0 0.0
2016-Jun-26 08:24N 43°39' E 007°11'0 0.0
2016-Jun-26 07:30N 43°39' E 007°11'0 0.0
2016-Jun-26 06:30N 43°39' E 007°11'0 0.0
2016-Jun-26 05:30N 43°39' E 007°11'1 1.4
2016-Jun-26 04:33N 43°38' E 007°10'6 4.7
2016-Jun-26 03:22N 43°33' E 007°07'0 0.0
2016-Jun-26 02:31N 43°33' E 007°07'0 0.0
2016-Jun-26 01:28N 43°33' E 007°07'0 0.0
2016-Jun-26 00:04N 43°33' E 007°07'0 0.0
2016-Jun-25 23:28N 43°33' E 007°07'0 0.0
2016-Jun-25 22:28N 43°33' E 007°07'0 0.0
2016-Jun-25 21:28N 43°33' E 007°07'0 0.0
2016-Jun-25 20:28N 43°33' E 007°07'0 0.0
2016-Jun-25 19:28N 43°33' E 007°07'0 0.0
2016-Jun-25 18:31N 43°33' E 007°07'0 0.0
2016-Jun-25 17:31N 43°33' E 007°07'0 0.0
2016-Jun-25 16:31N 43°33' E 007°07'0 0.0
2016-Jun-25 15:31N 43°33' E 007°07'0 0.0
2016-Jun-25 14:22N 43°33' E 007°07'0 0.0
2016-Jun-25 13:22N 43°33' E 007°07'0 0.0
2016-Jun-25 12:31N 43°33' E 007°07'0 0.0
2016-Jun-25 11:28N 43°33' E 007°07'0 0.0
2016-Jun-25 10:28N 43°33' E 007°07'0 0.0
2016-Jun-25 09:28N 43°33' E 007°07'0 0.0
2016-Jun-25 08:22N 43°33' E 007°07'0 0.0
2016-Jun-25 07:28N 43°33' E 007°07'0 0.0
2016-Jun-25 06:28N 43°33' E 007°07'0 0.0
2016-Jun-25 05:28N 43°33' E 007°07'0 0.0
2016-Jun-25 04:22N 43°33' E 007°07'0 0.0
2016-Jun-25 03:28N 43°33' E 007°07'0 0.0
2016-Jun-25 02:28N 43°33' E 007°07'0 0.0
2016-Jun-25 01:28N 43°33' E 007°07'0 0.0
2016-Jun-25 00:16N 43°33' E 007°07'0 0.0
2016-Jun-24 23:28N 43°33' E 007°07'0 0.0
2016-Jun-24 22:22N 43°33' E 007°07'0 0.0
2016-Jun-24 21:28N 43°33' E 007°07'0 0.0
2016-Jun-24 20:28N 43°33' E 007°07'0 0.0
2016-Jun-24 19:28N 43°33' E 007°07'0 0.0
2016-Jun-24 18:28N 43°33' E 007°07'0 0.0
2016-Jun-24 17:22N 43°33' E 007°07'0 0.0
2016-Jun-24 16:28N 43°33' E 007°07'0 0.0
2016-Jun-24 15:28N 43°33' E 007°07'0 0.0
2016-Jun-24 14:28N 43°33' E 007°07'0 0.0
2016-Jun-24 13:10N 43°33' E 007°07'0 0.0
2016-Jun-24 12:22N 43°33' E 007°07'0 0.0
2016-Jun-24 11:28N 43°33' E 007°07'0 0.0
2016-Jun-24 10:28N 43°33' E 007°07'0 0.0
2016-Jun-24 09:28N 43°33' E 007°07'0 0.0
2016-Jun-24 08:28N 43°33' E 007°07'0 0.0
2016-Jun-24 07:28N 43°33' E 007°07'0 0.0
2016-Jun-24 04:28N 43°33' E 007°07'0 0.0
2016-Jun-24 03:28N 43°33' E 007°07'0 0.0
2016-Jun-24 02:22N 43°33' E 007°07'0 0.0
2016-Jun-24 01:28N 43°33' E 007°07'0 0.0
2016-Jun-24 00:28N 43°33' E 007°07'0 0.0
2016-Jun-23 23:28N 43°33' E 007°07'0 0.0
2016-Jun-23 22:28N 43°33' E 007°07'0 0.0
2016-Jun-23 21:22N 43°33' E 007°07'0 0.0
2016-Jun-23 20:28N 43°33' E 007°07'0 0.0
2016-Jun-23 19:28N 43°33' E 007°07'0 0.0
2016-Jun-23 18:28N 43°33' E 007°07'0 0.0
2016-Jun-23 17:28N 43°33' E 007°07'0 0.0
2016-Jun-23 16:28N 43°33' E 007°07'7 7.5
2016-Jun-23 15:33N 43°39' E 007°11'0 0.1
2016-Jun-23 14:22N 43°39' E 007°11'0 0.0
2016-Jun-23 13:28N 43°39' E 007°11'0 0.0
2016-Jun-23 12:22N 43°39' E 007°11'0 0.0
2016-Jun-23 11:28N 43°39' E 007°11'0 0.0
2016-Jun-23 10:30N 43°39' E 007°11'7 7.1
2016-Jun-23 09:31N 43°33' E 007°07'0 0.0
2016-Jun-23 08:31N 43°33' E 007°07'0 0.0
2016-Jun-23 07:31N 43°33' E 007°07'0 0.0
2016-Jun-23 05:31N 43°33' E 007°07'0 0.0
2016-Jun-23 04:31N 43°33' E 007°07'0 0.0
2016-Jun-23 03:31N 43°33' E 007°07'0 0.0
2016-Jun-23 02:31N 43°33' E 007°07'0 0.0
2016-Jun-23 01:31N 43°33' E 007°07'0 0.0
2016-Jun-23 00:31N 43°33' E 007°07'0 0.0
2016-Jun-22 23:31N 43°33' E 007°07'0 0.0
2016-Jun-22 22:25N 43°33' E 007°07'0 0.0
2016-Jun-22 21:31N 43°33' E 007°07'0 0.0
2016-Jun-22 20:31N 43°33' E 007°07'0 0.0
2016-Jun-22 19:31N 43°33' E 007°07'0 0.0
2016-Jun-22 18:19N 43°33' E 007°07'16 1.3
2016-Jun-22 05:32N 43°19' E 006°54'1515.8
2016-Jun-22 04:33N 43°27' E 007°13'1616.0
2016-Jun-22 03:33N 43°35' E 007°32'1715.9
2016-Jun-22 02:30N 43°43' E 007°52'1515.8
2016-Jun-22 01:34N 43°51' E 008°10'1615.7
2016-Jun-22 00:34N 43°59' E 008°28'1515.2
2016-Jun-21 23:34N 44°06' E 008°47'  

Dump ship's entire track history